Time;durP1;ratioP1;P1;durP2;ratioP2;P2;SDS_P1;SDS_P2;PMS_P1;PMS_P2;Temp;Humidity;BMP_temperature;BMP_pressure;BME280_temperature;BME280_humidity;BME280_pressure;Samples;Min_cycle;Max_cycle;Signal;HPM_P1;HPM_P2
2023/09/03 00:00:54;;;;;;;6.33;3.70;;;;;;;18.30;100.00;98721.16;5114328;28;20709;-77
2023/09/03 00:03:21;;;;;;;7.27;4.17;;;;;;;18.31;100.00;98713.88;5114812;28;20187;-76
2023/09/03 00:05:51;;;;;;;7.07;4.07;;;;;;;18.30;100.00;98723.03;5114175;28;20650;-76
2023/09/03 00:08:18;;;;;;;7.23;4.47;;;;;;;18.18;100.00;98717.78;5111722;28;20200;-76
2023/09/03 00:10:54;;;;;;;5.57;4.30;;;;;;;18.21;100.00;98713.78;5103216;28;20223;-76
2023/09/03 00:13:26;;;;;;;4.27;3.87;;;;;;;18.24;100.00;98710.59;5114238;28;20202;-76
2023/09/03 00:15:56;;;;;;;6.47;4.90;;;;;;;18.30;100.00;98709.56;5103438;28;20188;-76
2023/09/03 00:18:23;;;;;;;12.47;8.77;;;;;;;18.40;100.00;98715.94;5112452;28;20201;-76
2023/09/03 00:20:56;;;;;;;20.07;13.70;;;;;;;18.38;100.00;98710.00;5114415;28;20207;-76
2023/09/03 00:23:22;;;;;;;19.97;12.33;;;;;;;18.33;100.00;98715.28;5114455;28;20252;-76
2023/09/03 00:25:49;;;;;;;17.73;12.17;;;;;;;18.33;100.00;98720.69;5114128;28;20211;-76
2023/09/03 00:28:15;;;;;;;17.83;11.90;;;;;;;18.30;100.00;98723.88;5091192;28;20693;-76
2023/09/03 00:30:43;;;;;;;14.27;10.67;;;;;;;18.20;100.00;98717.53;5077956;28;20225;-76
2023/09/03 00:33:09;;;;;;;14.93;10.50;;;;;;;18.09;100.00;98710.44;5085900;28;20204;-76
2023/09/03 00:35:35;;;;;;;12.57;10.17;;;;;;;18.02;100.00;98716.00;5093852;28;20226;-76
2023/09/03 00:38:02;;;;;;;13.33;9.87;;;;;;;18.22;100.00;98716.22;5094210;28;20210;-76
2023/09/03 00:40:28;;;;;;;12.17;8.67;;;;;;;18.26;100.00;98714.66;5094329;28;20228;-76
2023/09/03 00:42:55;;;;;;;11.03;8.30;;;;;;;18.16;100.00;98722.63;5093876;28;20210;-77
2023/09/03 00:45:21;;;;;;;10.50;7.87;;;;;;;18.14;100.00;98730.13;5091500;28;20200;-77
2023/09/03 00:47:48;;;;;;;8.87;6.90;;;;;;;18.07;100.00;98726.00;5073347;28;20216;-76
2023/09/03 00:50:19;;;;;;;7.47;6.43;;;;;;;18.07;100.00;98729.50;5073547;28;20314;-76
2023/09/03 00:52:45;;;;;;;6.90;5.63;;;;;;;18.09;100.00;98732.75;5084790;28;20196;-77
2023/09/03 00:55:11;;;;;;;7.60;5.43;;;;;;;18.03;100.00;98725.69;5096385;28;20228;-77
2023/09/03 00:57:38;;;;;;;7.10;5.40;;;;;;;17.97;100.00;98731.25;5097944;28;20211;-77
2023/09/03 01:00:05;;;;;;;7.20;4.90;;;;;;;18.00;100.00;98728.88;5083074;28;20216;-77
2023/09/03 01:02:33;;;;;;;7.60;5.17;;;;;;;17.96;100.00;98722.34;5077557;28;20201;-77
2023/09/03 01:04:59;;;;;;;9.23;7.63;;;;;;;17.95;100.00;98725.28;5077216;28;20200;-77
2023/09/03 01:07:25;;;;;;;15.03;9.27;;;;;;;18.03;100.00;98731.06;5077054;28;20200;-77
2023/09/03 01:09:52;;;;;;;12.17;7.97;;;;;;;18.01;100.00;98732.38;5082936;28;20215;-77
2023/09/03 01:12:42;;;;;;;8.13;6.83;;;;;;;17.98;100.00;98728.31;5097360;28;20555;-77
2023/09/03 01:15:14;;;;;;;7.50;6.73;;;;;;;17.98;100.00;98736.38;5097520;28;20216;-77
2023/09/03 01:17:46;;;;;;;8.17;6.43;;;;;;;18.07;100.00;98740.28;5097773;28;20188;-77
2023/09/03 01:20:33;;;;;;;7.40;5.97;;;;;;;17.97;100.00;98729.34;5097315;28;20227;-77
2023/09/03 01:23:33;;;;;;;6.70;5.50;;;;;;;17.95;100.00;98726.13;5097336;28;20188;-77
2023/09/03 01:26:11;;;;;;;6.77;5.70;;;;;;;18.05;100.00;98728.94;5091186;28;20272;-77
2023/09/03 01:28:42;;;;;;;6.30;5.07;;;;;;;18.15;100.00;98745.19;5076705;28;20644;-77
2023/09/03 01:31:20;;;;;;;6.00;5.20;;;;;;;17.98;100.00;98752.53;5076548;28;20259;-77
2023/09/03 01:33:48;;;;;;;6.70;5.33;;;;;;;17.88;100.00;98747.03;5076950;28;20535;-77
2023/09/03 01:36:14;;;;;;;7.53;5.67;;;;;;;17.85;100.00;98752.88;5079168;28;20297;-77
2023/09/03 01:38:41;;;;;;;6.93;5.50;;;;;;;17.82;100.00;98748.00;5097104;28;20653;-77
2023/09/03 01:41:08;;;;;;;5.40;4.83;;;;;;;17.85;100.00;98752.06;5096825;28;20696;-77
2023/09/03 01:43:35;;;;;;;6.57;5.33;;;;;;;17.76;100.00;98765.13;5097120;28;20208;-77
2023/09/03 01:46:07;;;;;;;5.80;5.27;;;;;;;17.77;100.00;98764.06;5096916;28;20196;-77
2023/09/03 01:48:45;;;;;;;6.83;5.10;;;;;;;17.79;100.00;98771.91;5097217;28;20214;-77
2023/09/03 01:51:47;;;;;;;5.30;4.77;;;;;;;17.68;100.00;98773.63;5096438;28;20192;-77
2023/09/03 01:54:18;;;;;;;5.60;5.07;;;;;;;17.72;100.00;98777.44;5014557;28;20230;-77
2023/09/03 01:56:56;;;;;;;8.13;5.43;;;;;;;17.71;100.00;98781.19;5083080;28;20204;-76
2023/09/03 01:59:45;;;;;;;9.97;5.40;;;;;;;17.64;100.00;98772.47;5096383;28;20285;-77
2023/09/03 02:02:15;;;;;;;5.90;5.27;;;;;;;17.80;100.00;98771.66;5095699;28;20203;-77
2023/09/03 02:04:41;;;;;;;5.87;5.10;;;;;;;17.73;100.00;98765.63;5096104;28;20206;-77
2023/09/03 02:07:08;;;;;;;8.33;5.50;;;;;;;17.64;100.00;98774.38;5090437;28;20200;-77
2023/09/03 02:09:34;;;;;;;8.47;5.80;;;;;;;17.65;100.00;98773.31;5077908;28;20231;-77
2023/09/03 02:12:03;;;;;;;8.73;5.20;;;;;;;17.67;100.00;98779.22;5077112;28;20198;-76
2023/09/03 02:14:29;;;;;;;6.97;5.07;;;;;;;17.66;100.00;98786.50;5076116;28;20239;-77
2023/09/03 02:16:56;;;;;;;5.10;4.57;;;;;;;17.56;100.00;98791.72;5076272;28;20200;-76
2023/09/03 02:19:23;;;;;;;5.17;4.67;;;;;;;17.56;100.00;98796.28;5075939;28;20225;-77
2023/09/03 02:21:50;;;;;;;7.03;5.00;;;;;;;17.39;100.00;98790.91;5076066;28;20262;-77
2023/09/03 02:24:16;;;;;;;5.90;4.73;;;;;;;17.35;100.00;98789.75;5076126;28;20209;-77
2023/09/03 02:26:44;;;;;;;10.03;4.97;;;;;;;17.34;100.00;98788.13;5076001;28;20201;-77
2023/09/03 02:29:10;;;;;;;6.67;4.67;;;;;;;17.34;100.00;98795.34;5075882;28;20228;-77
2023/09/03 02:31:37;;;;;;;7.07;4.57;;;;;;;17.34;100.00;98793.50;5076117;28;20193;-77
2023/09/03 02:34:05;;;;;;;5.00;4.23;;;;;;;17.40;100.00;98794.41;5075403;28;20296;-77
2023/09/03 02:36:33;;;;;;;4.83;4.30;;;;;;;17.39;100.00;98790.91;5077095;28;20207;-77
2023/09/03 02:39:05;;;;;;;5.03;4.07;;;;;;;17.32;100.00;98794.81;5075441;28;20587;-77
2023/09/03 02:41:32;;;;;;;8.20;4.97;;;;;;;17.28;100.00;98790.97;5075720;28;20204;-77
2023/09/03 02:43:59;;;;;;;7.30;5.10;;;;;;;17.27;100.00;98786.63;5075613;28;20270;-77
2023/09/03 02:46:26;;;;;;;5.63;4.50;;;;;;;17.33;100.00;98788.38;5075356;28;20296;-76
2023/09/03 02:48:53;;;;;;;6.70;4.90;;;;;;;17.33;100.00;98794.53;5075604;28;20232;-77
2023/09/03 02:51:20;;;;;;;7.87;5.37;;;;;;;17.31;100.00;98793.97;5075485;28;20204;-76
2023/09/03 02:53:47;;;;;;;6.10;5.50;;;;;;;17.29;100.00;98793.38;5075341;28;20209;-77
2023/09/03 02:56:14;;;;;;;5.97;5.23;;;;;;;17.31;100.00;98804.72;5075330;28;20228;-76
2023/09/03 02:58:42;;;;;;;7.20;5.00;;;;;;;17.21;100.00;98809.09;5075332;28;20225;-77
2023/09/03 03:01:14;;;;;;;6.07;5.00;;;;;;;17.36;100.00;98804.81;5075273;28;20212;-76
2023/09/03 03:03:41;;;;;;;7.03;5.10;;;;;;;17.22;100.00;98805.34;5075227;28;20193;-76
2023/09/03 03:06:08;;;;;;;8.77;4.90;;;;;;;17.09;100.00;98794.91;5075345;28;20211;-76
2023/09/03 03:08:35;;;;;;;5.67;4.63;;;;;;;17.17;100.00;98814.16;5075024;28;20208;-76
2023/09/03 03:11:11;;;;;;;5.47;4.97;;;;;;;17.13;100.00;98799.56;5075159;28;20201;-77
2023/09/03 03:13:42;;;;;;;5.40;4.70;;;;;;;17.17;100.00;98795.34;5075121;28;20196;-76
2023/09/03 03:16:14;;;;;;;5.30;4.20;;;;;;;17.17;100.00;98797.22;5074268;28;20599;-76
2023/09/03 03:18:42;;;;;;;5.00;4.50;;;;;;;17.19;100.00;98795.91;5074630;28;20231;-76
2023/09/03 03:21:10;;;;;;;7.80;5.13;;;;;;;17.10;100.00;98799.25;5074920;28;20204;-76
2023/09/03 03:23:37;;;;;;;7.40;4.93;;;;;;;17.05;100.00;98802.66;5074877;28;20207;-76
2023/09/03 03:26:05;;;;;;;6.50;5.30;;;;;;;17.10;100.00;98808.13;5074838;28;20207;-76
2023/09/03 03:28:34;;;;;;;4.90;4.40;;;;;;;17.18;100.00;98807.72;5074301;28;20566;-76
2023/09/03 03:31:14;;;;;;;7.57;4.80;;;;;;;17.00;100.00;98802.56;5074670;28;20218;-76
2023/09/03 03:33:41;;;;;;;6.27;5.13;;;;;;;17.05;100.00;98816.09;5074769;28;20204;-76
2023/09/03 03:36:10;;;;;;;5.67;4.97;;;;;;;17.06;100.00;98812.34;5074371;28;20228;-76
2023/09/03 03:38:37;;;;;;;6.70;4.80;;;;;;;17.19;100.00;98811.25;5074376;28;20204;-76
2023/09/03 03:41:10;;;;;;;8.53;5.00;;;;;;;17.21;100.00;98812.63;5074691;28;20200;-76
2023/09/03 03:43:38;;;;;;;7.23;5.07;;;;;;;17.25;100.00;98837.13;5074339;28;20215;-76
2023/09/03 03:46:06;;;;;;;5.53;5.07;;;;;;;17.15;100.00;98842.34;5074277;28;20578;-76
2023/09/03 03:48:33;;;;;;;5.40;4.90;;;;;;;17.16;100.00;98827.84;5074332;28;20211;-76
2023/09/03 03:51:00;;;;;;;6.57;4.60;;;;;;;17.16;100.00;98820.59;5074054;28;20655;-76
2023/09/03 03:53:27;;;;;;;5.43;4.93;;;;;;;17.16;100.00;98820.59;5074243;28;20201;-76
2023/09/03 03:56:04;;;;;;;5.03;4.47;;;;;;;17.11;100.00;98825.88;5074226;28;20232;-76
2023/09/03 03:58:33;;;;;;;5.47;4.87;;;;;;;17.00;100.00;98828.59;5074095;28;20189;-75
2023/09/03 04:01:00;;;;;;;6.13;5.17;;;;;;;17.07;100.00;98824.75;5074436;28;20204;-76
2023/09/03 04:03:28;;;;;;;5.53;4.80;;;;;;;17.07;100.00;98830.13;5073844;28;20668;-76
2023/09/03 04:05:58;;;;;;;5.23;4.73;;;;;;;17.05;100.00;98834.91;5073802;28;20660;-76
2023/09/03 04:08:25;;;;;;;5.50;4.90;;;;;;;17.11;100.00;98835.81;5073931;28;20208;-76
2023/09/03 04:11:04;;;;;;;6.30;4.90;;;;;;;17.11;100.00;98836.63;5073902;28;20212;-76
2023/09/03 04:13:31;;;;;;;7.33;5.30;;;;;;;17.10;100.00;98840.34;5073784;28;20582;-76
2023/09/03 04:15:59;;;;;;;5.63;4.90;;;;;;;17.07;100.00;98840.03;5073961;28;20227;-76
2023/09/03 04:18:26;;;;;;;5.37;4.87;;;;;;;17.07;100.00;98840.84;5073908;28;20200;-76
2023/09/03 04:20:54;;;;;;;6.60;4.60;;;;;;;16.97;100.00;98847.91;5074039;28;20205;-76
2023/09/03 04:23:21;;;;;;;5.70;4.90;;;;;;;17.00;100.00;98845.56;5073999;28;20200;-76
2023/09/03 04:25:47;;;;;;;5.30;4.77;;;;;;;17.06;100.00;98849.94;5073930;28;20207;-76
2023/09/03 04:28:14;;;;;;;4.87;4.33;;;;;;;16.95;100.00;98852.69;5073457;28;20205;-76
2023/09/03 04:30:40;;;;;;;5.50;4.50;;;;;;;16.89;100.00;98851.81;5073637;28;20242;-76
2023/09/03 04:33:07;;;;;;;5.07;4.57;;;;;;;16.82;100.00;98853.00;5073854;28;20211;-76
2023/09/03 04:35:37;;;;;;;5.20;4.70;;;;;;;16.80;100.00;98855.09;5073631;28;20308;-76
2023/09/03 04:38:05;;;;;;;6.97;4.93;;;;;;;16.73;100.00;98860.59;5073838;28;20201;-76
2023/09/03 04:40:35;;;;;;;5.83;4.67;;;;;;;16.73;100.00;98860.59;5073405;28;20267;-76
2023/09/03 04:43:03;;;;;;;5.53;5.00;;;;;;;16.79;100.00;98858.84;5073903;28;20238;-76
2023/09/03 04:45:29;;;;;;;6.33;4.90;;;;;;;16.75;100.00;98869.25;5073743;28;20204;-76
2023/09/03 04:47:57;;;;;;;5.10;4.67;;;;;;;16.81;100.00;98873.66;5073812;28;20216;-76
2023/09/03 04:50:24;;;;;;;4.90;4.40;;;;;;;16.79;100.00;98875.75;5073674;28;20225;-76
2023/09/03 04:52:50;;;;;;;5.63;4.87;;;;;;;16.78;100.00;98866.06;5073538;28;20283;-76
2023/09/03 04:55:17;;;;;;;5.93;4.83;;;;;;;16.81;100.00;98870.97;5073338;28;20692;-76
2023/09/03 04:57:43;;;;;;;6.63;4.77;;;;;;;16.83;100.00;98882.28;5073486;28;20215;-76
2023/09/03 05:00:11;;;;;;;7.43;5.50;;;;;;;16.66;100.00;98881.41;5073532;28;20220;-76
2023/09/03 05:02:38;;;;;;;5.83;5.33;;;;;;;16.68;100.00;98873.94;5073643;28;20215;-76
2023/09/03 05:05:05;;;;;;;5.33;4.90;;;;;;;16.70;100.00;98877.19;5073469;28;20545;-76
2023/09/03 05:07:32;;;;;;;5.30;4.80;;;;;;;16.71;100.00;98899.50;5073548;28;20210;-76
2023/09/03 05:09:58;;;;;;;6.07;4.53;;;;;;;16.72;100.00;98893.88;5073002;28;20731;-76
2023/09/03 05:12:25;;;;;;;7.07;5.27;;;;;;;16.73;100.00;98892.81;5073085;28;20204;-76
2023/09/03 05:14:52;;;;;;;9.53;5.37;;;;;;;16.73;100.00;98898.19;5073447;28;20220;-76
2023/09/03 05:17:20;;;;;;;5.03;4.60;;;;;;;16.76;100.00;98894.22;5073142;28;20682;-76
2023/09/03 05:19:46;;;;;;;7.60;4.87;;;;;;;16.80;100.00;98903.44;5073059;28;20634;-76
2023/09/03 05:22:13;;;;;;;6.30;4.37;;;;;;;16.80;100.00;98898.91;5073436;28;20204;-76
2023/09/03 05:24:39;;;;;;;6.37;4.80;;;;;;;16.84;100.00;98918.84;5073399;28;20216;-76
2023/09/03 05:27:05;;;;;;;5.43;4.73;;;;;;;16.94;100.00;98908.31;5073610;28;20204;-76
2023/09/03 05:29:32;;;;;;;7.03;5.23;;;;;;;16.98;100.00;98920.22;5072759;28;20232;-76
2023/09/03 05:31:58;;;;;;;5.67;4.90;;;;;;;17.15;100.00;98923.75;5073017;28;20664;-76
2023/09/03 05:34:25;;;;;;;6.57;4.80;;;;;;;17.16;100.00;98917.34;5073029;28;20209;-76
2023/09/03 05:36:51;;;;;;;5.83;4.67;;;;;;;17.13;100.00;98917.81;5072809;28;20229;-76
2023/09/03 05:39:17;;;;;;;5.67;5.17;;;;;;;17.28;100.00;98915.41;5084207;28;20290;-77
2023/09/03 05:41:44;;;;;;;8.03;4.70;;;;;;;17.19;100.00;98919.53;5089309;28;20279;-77
2023/09/03 05:44:13;;;;;;;5.40;4.90;;;;;;;17.21;100.00;98912.06;5077806;28;20205;-77
2023/09/03 05:46:39;;;;;;;6.53;4.97;;;;;;;17.22;100.00;98918.22;5095432;28;20210;-77
2023/09/03 05:49:05;;;;;;;6.50;4.93;;;;;;;17.26;100.00;98914.84;5091650;28;20219;-76
2023/09/03 05:51:32;;;;;;;5.20;4.70;;;;;;;17.26;100.00;98916.69;5076584;28;20201;-77
2023/09/03 05:53:58;;;;;;;9.53;4.80;;;;;;;17.31;100.00;98917.63;5076488;28;20208;-77
2023/09/03 05:56:25;;;;;;;6.30;4.93;;;;;;;17.35;100.00;98916.06;5076140;28;20714;-77
2023/09/03 05:58:51;;;;;;;8.80;5.10;;;;;;;17.33;100.00;98920.84;5080798;28;20568;-77
2023/09/03 06:01:18;;;;;;;7.87;5.33;;;;;;;17.34;100.00;98906.38;5084072;28;20249;-77
2023/09/03 06:03:44;;;;;;;6.97;4.67;;;;;;;17.38;100.00;98915.56;5088230;28;20232;-77
2023/09/03 06:06:12;;;;;;;5.43;4.47;;;;;;;17.42;100.00;98914.06;5096556;28;20196;-77
2023/09/03 06:08:39;;;;;;;5.13;4.57;;;;;;;17.47;100.00;98910.66;5077586;28;20211;-77
2023/09/03 06:11:06;;;;;;;5.10;4.63;;;;;;;17.48;100.00;98909.59;5078727;28;20204;-77
2023/09/03 06:13:34;;;;;;;7.20;4.73;;;;;;;17.58;100.00;98913.28;5112099;28;20195;-77
2023/09/03 06:16:00;;;;;;;7.77;4.80;;;;;;;17.66;100.00;98923.66;5115408;28;20237;-77
2023/09/03 06:18:27;;;;;;;5.43;4.73;;;;;;;17.78;100.00;98931.66;5107063;28;20191;-77
2023/09/03 06:20:54;;;;;;;4.93;4.47;;;;;;;17.69;100.00;98922.34;5116679;28;20213;-77
2023/09/03 06:23:21;;;;;;;6.57;4.90;;;;;;;17.79;100.00;98927.91;5116677;28;20210;-77
2023/09/03 06:25:47;;;;;;;5.30;4.90;;;;;;;17.83;100.00;98931.75;5116536;28;20276;-77
2023/09/03 06:28:14;;;;;;;5.17;4.67;;;;;;;17.87;100.00;98941.75;5116762;28;20203;-77
2023/09/03 06:30:41;;;;;;;6.20;5.13;;;;;;;17.96;100.00;98948.34;5116224;28;20254;-77
2023/09/03 06:33:08;;;;;;;6.73;4.77;;;;;;;18.08;100.00;98949.09;5116731;28;20203;-77
2023/09/03 06:35:34;;;;;;;5.63;4.90;;;;;;;18.04;100.00;98953.34;5110590;28;20215;-77
2023/09/03 06:38:01;;;;;;;7.17;5.03;;;;;;;18.08;100.00;98962.56;5096044;28;20210;-77
2023/09/03 06:40:27;;;;;;;6.33;4.87;;;;;;;18.09;100.00;98955.31;5096036;28;20220;-77
2023/09/03 06:42:54;;;;;;;6.37;5.00;;;;;;;18.10;100.00;98962.31;5095811;28;20204;-77
2023/09/03 06:45:20;;;;;;;7.50;5.13;;;;;;;18.25;100.00;98962.56;5095798;28;20204;-77
2023/09/03 06:47:47;;;;;;;7.87;4.73;;;;;;;18.24;100.00;98967.09;5095927;28;20206;-77
2023/09/03 06:50:14;;;;;;;6.43;4.87;;;;;;;18.22;100.00;98963.03;5095624;28;20224;-77
2023/09/03 06:52:40;;;;;;;6.80;5.13;;;;;;;18.30;100.00;98968.84;5108056;28;20200;-76
2023/09/03 06:55:07;;;;;;;5.37;4.53;;;;;;;18.24;100.00;98977.09;5103092;28;20195;-77
2023/09/03 06:57:34;;;;;;;9.03;5.60;;;;;;;18.38;100.00;98986.47;5103540;28;20673;-75
2023/09/03 07:00:01;;;;;;;5.97;4.90;;;;;;;18.38;100.00;98986.47;5106179;28;20219;-75
2023/09/03 07:02:27;;;;;;;7.07;5.30;;;;;;;18.33;100.00;98995.28;5095433;28;20211;-75
2023/09/03 07:04:56;;;;;;;5.30;4.83;;;;;;;18.35;100.00;98995.03;5095176;28;20199;-75
2023/09/03 07:07:22;;;;;;;7.70;4.90;;;;;;;18.56;100.00;99011.28;5095174;28;20261;-75
2023/09/03 07:09:49;;;;;;;5.13;4.50;;;;;;;18.54;100.00;99004.47;5095114;28;20224;-76
2023/09/03 07:12:15;;;;;;;7.63;5.00;;;;;;;18.62;100.00;99009.47;5095344;28;20200;-76
2023/09/03 07:14:42;;;;;;;5.00;4.50;;;;;;;18.51;100.00;99008.47;5095211;28;20203;-76
2023/09/03 07:17:08;;;;;;;6.37;4.70;;;;;;;18.58;100.00;99001.06;5094785;28;20694;-76
2023/09/03 07:19:34;;;;;;;6.37;4.20;;;;;;;18.64;100.00;99005.44;5094703;28;20677;-76
2023/09/03 07:22:01;;;;;;;5.93;4.80;;;;;;;18.52;100.00;99014.69;5095180;28;20214;-76
2023/09/03 07:24:27;;;;;;;6.43;4.50;;;;;;;18.65;100.00;99014.34;5103925;28;20195;-76
2023/09/03 07:26:53;;;;;;;4.93;4.50;;;;;;;18.85;100.00;99017.34;5108456;28;20202;-76
2023/09/03 07:29:20;;;;;;;7.47;4.70;;;;;;;18.81;100.00;99022.41;5096179;28;20224;-76
2023/09/03 07:31:46;;;;;;;5.67;4.50;;;;;;;18.81;100.00;99033.19;5106069;28;20206;-76
2023/09/03 07:34:16;;;;;;;4.60;4.13;;;;;;;18.82;100.00;99034.00;5098801;28;20563;-76
2023/09/03 07:36:43;;;;;;;6.87;4.53;;;;;;;18.87;100.00;99034.09;5096094;28;20216;-76
2023/09/03 07:39:10;;;;;;;5.83;4.23;;;;;;;19.00;100.00;99025.66;5094500;28;20245;-76
2023/09/03 07:41:37;;;;;;;6.23;4.67;;;;;;;18.98;100.00;99039.38;5096318;28;20204;-76
2023/09/03 07:44:04;;;;;;;6.10;4.83;;;;;;;18.98;100.00;99035.84;5094170;28;20207;-76
2023/09/03 07:46:31;;;;;;;4.53;4.23;;;;;;;18.95;100.00;99037.16;5076567;28;20235;-76
2023/09/03 07:48:58;;;;;;;4.53;4.13;;;;;;;19.07;100.00;99037.88;5092320;28;20212;-76
2023/09/03 07:51:24;;;;;;;4.87;4.37;;;;;;;19.14;100.00;99035.78;5094115;28;20198;-76
2023/09/03 07:53:50;;;;;;;7.47;4.77;;;;;;;19.16;100.00;99028.28;5086938;28;20200;-76
2023/09/03 07:56:18;;;;;;;5.20;4.80;;;;;;;19.25;100.00;99044.88;5103067;28;20211;-76
2023/09/03 07:58:45;;;;;;;5.27;4.77;;;;;;;19.29;100.00;99038.72;5114320;28;20325;-76
2023/09/03 08:01:13;;;;;;;7.73;4.53;;;;;;;19.34;100.00;99044.19;5100552;28;20191;-76
2023/09/03 08:03:39;;;;;;;8.73;4.53;;;;;;;19.48;100.00;99047.31;5105667;28;20544;-76
2023/09/03 08:06:10;;;;;;;6.13;4.60;;;;;;;19.43;100.00;99056.16;5106761;28;20229;-76
2023/09/03 08:08:38;;;;;;;5.43;4.93;;;;;;;19.61;100.00;99055.00;5094812;28;20195;-76
2023/09/03 08:11:04;;;;;;;6.10;4.87;;;;;;;19.91;100.00;99055.34;5077832;28;20204;-76
2023/09/03 08:13:31;;;;;;;6.07;4.90;;;;;;;20.01;100.00;99051.94;5096240;28;20208;-76
2023/09/03 08:15:57;;;;;;;6.43;5.07;;;;;;;20.22;100.00;99053.78;5093952;28;20222;-76
2023/09/03 08:18:24;;;;;;;8.23;4.40;;;;;;;20.05;100.00;99053.88;5093418;28;20204;-76
2023/09/03 08:20:51;;;;;;;6.33;4.40;;;;;;;20.37;100.00;99060.13;5093549;28;20211;-76
2023/09/03 08:23:18;;;;;;;6.27;4.80;;;;;;;20.24;100.00;99059.72;5093609;28;20210;-76
2023/09/03 08:25:45;;;;;;;5.33;4.33;;;;;;;20.39;100.00;99057.19;5093764;28;20243;-77
2023/09/03 08:28:12;;;;;;;6.67;4.50;;;;;;;20.37;100.00;99062.00;5083378;28;20212;-76
2023/09/03 08:30:39;;;;;;;6.33;4.67;;;;;;;20.36;100.00;99063.91;5073110;28;20236;-76
2023/09/03 08:33:06;;;;;;;7.13;4.80;;;;;;;20.46;100.00;99063.16;5073868;28;20206;-76
2023/09/03 08:35:32;;;;;;;8.30;4.75;;;;;;;20.52;100.00;99062.16;5073478;28;20293;-76
2023/09/03 08:37:59;;;;;;;5.30;4.60;;;;;;;20.53;100.00;99053.78;5073572;28;20575;-76
2023/09/03 08:40:26;;;;;;;7.27;4.37;;;;;;;20.76;100.00;99058.00;5074164;28;20587;-76
2023/09/03 08:42:55;;;;;;;4.87;4.43;;;;;;;21.09;100.00;99063.94;5093658;28;20258;-76
2023/09/03 08:45:23;;;;;;;7.03;4.63;;;;;;;21.10;100.00;99059.31;5093599;28;20203;-76
2023/09/03 08:47:49;;;;;;;5.50;4.60;;;;;;;21.00;100.00;99053.84;5098747;28;20192;-76
2023/09/03 08:50:17;;;;;;;5.37;4.87;;;;;;;21.13;100.00;99064.22;5094496;28;20231;-76
2023/09/03 08:52:44;;;;;;;6.53;4.50;;;;;;;21.09;100.00;99065.81;5093582;28;20659;-76
2023/09/03 08:55:12;;;;;;;5.63;4.73;;;;;;;20.83;100.00;99070.22;5093611;28;20207;-77
2023/09/03 08:57:39;;;;;;;5.83;4.73;;;;;;;21.25;100.00;99075.66;5093432;28;20706;-76
2023/09/03 09:00:07;;;;;;;5.77;4.53;;;;;;;21.43;100.00;99084.13;5093552;28;20289;-76
2023/09/03 09:02:36;;;;;;;4.83;3.87;;;;;;;21.55;100.00;99073.06;5093254;28;20670;-76
2023/09/03 09:05:05;;;;;;;5.27;4.03;;;;;;;21.80;100.00;99070.50;5092703;28;20196;-76
2023/09/03 09:07:33;;;;;;;4.93;4.40;;;;;;;21.87;100.00;99076.44;5093747;28;20201;-76
2023/09/03 09:10:01;;;;;;;4.93;4.00;;;;;;;22.00;100.00;99075.94;5093490;28;20224;-76
2023/09/03 09:12:45;;;;;;;5.45;3.60;;;;;;;22.25;100.00;99092.25;5081144;28;20207;-76
2023/09/03 09:15:12;;;;;;;5.40;3.50;;;;;;;22.29;100.00;99096.06;5074031;28;20203;-76
2023/09/03 09:17:39;;;;;;;3.55;3.25;;;;;;;22.47;100.00;99104.50;5076168;28;20674;-76
2023/09/03 09:20:07;;;;;;;3.15;2.85;;;;;;;22.29;100.00;99098.78;5078133;28;20570;-76
2023/09/03 09:22:41;;;;;;;4.45;3.83;;;;;;;22.19;100.00;99098.72;5105782;28;20199;-77
2023/09/03 09:25:08;;;;;;;3.55;3.10;;;;;;;22.28;100.00;99103.38;5117484;28;20202;-77
2023/09/03 09:27:38;;;;;;;5.20;3.20;;;;;;;22.40;100.00;99103.09;5117016;28;20203;-76
2023/09/03 09:30:11;;;;;;;3.10;2.80;;;;;;;22.64;100.00;99096.09;5080134;28;20234;-76
2023/09/03 09:32:38;;;;;;;3.47;3.17;;;;;;;22.41;100.00;99091.19;5095693;28;20210;-76
2023/09/03 09:35:06;;;;;;;2.97;2.65;;;;;;;22.44;100.00;99096.91;5097375;28;20286;-76
2023/09/03 09:37:42;;;;;;;3.38;2.65;;;;;;;22.40;100.00;99101.22;5096512;28;20220;-76
2023/09/03 09:40:12;;;;;;;3.08;2.78;;;;;;;21.95;100.00;99111.97;5098701;28;20224;-76
2023/09/03 09:42:53;;;;;;;3.92;2.75;;;;;;;21.92;100.00;99103.53;5103257;28;20212;-76
2023/09/03 09:45:19;;;;;;;2.35;2.15;;;;;;;22.18;100.00;99105.25;5096846;28;20192;-76
2023/09/03 09:47:46;;;;;;;2.42;2.33;;;;;;;22.25;100.00;99101.19;5098685;28;20192;-76
2023/09/03 09:50:13;;;;;;;2.30;2.10;;;;;;;22.77;100.00;99103.69;5095959;28;20297;-76
2023/09/03 09:52:40;;;;;;;3.33;2.40;;;;;;;22.88;100.00;99110.75;5099296;28;20200;-76
2023/09/03 09:55:07;;;;;;;2.45;2.10;;;;;;;23.10;100.00;99113.94;5096687;28;20203;-76
2023/09/03 09:57:34;;;;;;;3.92;2.00;;;;;;;23.26;100.00;99112.88;5096805;28;20811;-76
2023/09/03 10:00:01;;;;;;;3.72;2.10;;;;;;;23.24;100.00;99105.00;5095710;28;20667;-76
2023/09/03 10:02:28;;;;;;;1.80;1.70;;;;;;;23.28;100.00;99113.41;5113147;28;20557;-76
2023/09/03 10:04:55;;;;;;;2.28;1.70;;;;;;;23.42;100.00;99100.91;5105711;28;20223;-76
2023/09/03 10:07:22;;;;;;;2.45;1.60;;;;;;;23.47;100.00;99100.88;5096274;28;20226;-76
2023/09/03 10:09:48;;;;;;;1.92;1.83;;;;;;;23.48;100.00;99107.94;5096676;28;20273;-76
2023/09/03 10:12:15;;;;;;;1.92;1.80;;;;;;;23.39;100.00;99106.88;5097517;28;20191;-76
2023/09/03 10:14:42;;;;;;;2.38;1.83;;;;;;;23.65;100.00;99106.50;5096216;28;20298;-76
2023/09/03 10:17:10;;;;;;;2.10;1.90;;;;;;;23.46;100.00;99101.97;5084566;28;20212;-75
2023/09/03 10:19:49;;;;;;;2.00;1.80;;;;;;;23.52;100.00;99109.00;5084454;28;20726;-76
2023/09/03 10:22:18;;;;;;;2.35;2.03;;;;;;;23.28;100.00;99100.66;5084873;28;20278;-76
2023/09/03 10:24:51;;;;;;;2.05;1.85;;;;;;;23.77;100.00;99092.59;5085671;28;20201;-76
2023/09/03 10:27:22;;;;;;;2.42;1.73;;;;;;;23.38;100.00;99100.63;5085278;28;20195;-76
2023/09/03 10:29:49;;;;;;;1.90;1.75;;;;;;;23.40;100.00;99098.47;5083145;28;20230;-76
2023/09/03 10:32:17;;;;;;;2.03;1.88;;;;;;;23.61;100.00;99094.56;5088836;28;20200;-76
2023/09/03 10:34:44;;;;;;;3.08;2.88;;;;;;;23.42;100.00;99085.41;5116325;28;20210;-76
2023/09/03 10:37:12;;;;;;;1.63;1.52;;;;;;;23.86;100.00;99080.88;5093848;28;20591;-76
2023/09/03 10:39:42;;;;;;;1.70;1.60;;;;;;;23.79;99.88;99083.09;5115907;28;20706;-76
2023/09/03 10:42:24;;;;;;;1.30;1.20;;;;;;;23.96;95.12;99080.88;5115945;28;20348;-76
2023/09/03 10:45:02;;;;;;;2.05;1.20;;;;;;;24.06;98.27;99077.28;5115602;28;20207;-76
2023/09/03 10:47:29;;;;;;;1.45;1.35;;;;;;;24.17;96.66;99089.69;5115888;28;20214;-76
2023/09/03 10:49:56;;;;;;;1.38;1.30;;;;;;;23.39;96.21;99090.59;5096512;28;20219;-76
2023/09/03 10:52:30;;;;;;;1.33;1.17;;;;;;;24.08;95.54;99083.25;5076549;28;20841;-76
2023/09/03 10:55:20;;;;;;;2.35;1.25;;;;;;;23.85;95.18;99083.88;5086850;28;20202;-76
2023/09/03 10:57:48;;;;;;;1.50;1.40;;;;;;;23.79;96.53;99085.00;5075039;28;20225;-76
2023/09/03 11:00:17;;;;;;;1.20;1.10;;;;;;;24.11;98.22;99078.03;5083280;28;20220;-76
2023/09/03 11:02:44;;;;;;;1.42;1.33;;;;;;;24.07;97.11;99081.63;5091204;28;20200;-76
2023/09/03 11:05:13;;;;;;;4.38;1.90;;;;;;;24.25;100.00;99078.25;5086145;28;20239;-76
2023/09/03 11:07:42;;;;;;;1.38;1.27;;;;;;;24.20;96.82;99086.44;5074457;28;20292;-76
2023/09/03 11:10:21;;;;;;;1.55;1.20;;;;;;;24.27;95.03;99076.88;5090142;28;20590;-76
2023/09/03 11:12:48;;;;;;;1.40;1.30;;;;;;;24.29;93.80;99079.31;5085694;28;20426;-76
2023/09/03 11:15:15;;;;;;;1.50;1.33;;;;;;;24.20;94.69;99081.00;5084883;28;20287;-76
2023/09/03 11:17:55;;;;;;;11.82;9.20;;;;;;;24.15;96.96;99086.47;5085124;28;20220;-76
2023/09/03 11:20:32;;;;;;;1.17;1.17;;;;;;;24.31;97.38;99069.78;5084687;28;20590;-76
2023/09/03 11:22:59;;;;;;;2.05;1.17;;;;;;;24.44;94.04;99065.59;5082798;28;20226;-76
2023/09/03 11:25:36;;;;;;;1.08;1.00;;;;;;;24.58;95.58;99061.94;5085207;28;20226;-76
2023/09/03 11:28:07;;;;;;;4.07;1.40;;;;;;;24.31;94.63;99060.78;5082641;28;20204;-76
2023/09/03 11:30:34;;;;;;;2.13;1.92;;;;;;;23.83;94.21;99075.22;5084178;28;20235;-76